QTR328 EGKK-OTHH
Flight info
| Callsign | QTR328 |
|---|---|
| Flight time | 3h 33m |
| Altitude | 37000 |
| Route | MIMFO Y312 DVR UL9 KONAN DCT KOK DCT REMBA DCT SPI DCT AMASI DCT BOMBI DCT TENLO DCT LAMSI DCT STEIN DCT INVED DCT RASUB DCT ARTAT UP975 EZS UG8 SRT/N0493F390 UG8 OTKEP UM688 RATVO M688 KEDIM DCT SISIN M688 SIDAD P975 LONOS L703 HAYYA |
| Aircraft | A359/H-SDE2E3GHIJ3J4J5LM1ORWXY/LB1D1 |
Departure
| Time | 2026-05-04 14:52 |
|---|---|
| Airport | London Gatwick Airport (EGKK) |
Arrival
| Time | 2026-05-04 18:25 |
|---|---|
| Airport | Hamad International Airport (OTHH) |
| Time | Latitude | Longitude | Altitude | Speed | Heading |
|---|---|---|---|---|---|
| 2026-05-04 14:27 | 51.15931 | -0.17977 | 216 ft | 0 kts | 78° |
| 2026-05-04 14:38 | 51.15928 | -0.17996 | 218 ft | 4 kts | 78° |
| 2026-05-04 14:39 | 51.15923 | -0.18039 | 218 ft | 3 kts | 78° |
| 2026-05-04 14:39 | 51.15919 | -0.18074 | 227 ft | 4 kts | 95° |
| 2026-05-04 14:39 | 51.15923 | -0.18106 | 223 ft | 4 kts | 132° |
| 2026-05-04 14:40 | 51.15966 | -0.18130 | 226 ft | 4 kts | 177° |
| 2026-05-04 14:40 | 51.15993 | -0.18133 | 227 ft | 4 kts | 171° |
| 2026-05-04 14:40 | 51.16001 | -0.18135 | 227 ft | 4 kts | 168° |
| 2026-05-04 14:43 | 51.15969 | -0.18123 | 223 ft | 9 kts | 166° |
| 2026-05-04 14:44 | 51.15907 | -0.18100 | 222 ft | 10 kts | 167° |
| 2026-05-04 14:44 | 51.15831 | -0.18073 | 225 ft | 13 kts | 167° |
| 2026-05-04 14:44 | 51.15736 | -0.18040 | 228 ft | 15 kts | 171° |
| 2026-05-04 14:44 | 51.15674 | -0.18131 | 224 ft | 14 kts | 257° |
| 2026-05-04 14:45 | 51.15650 | -0.18297 | 225 ft | 17 kts | 257° |
| 2026-05-04 14:45 | 51.15625 | -0.18486 | 223 ft | 19 kts | 258° |
| 2026-05-04 14:45 | 51.15596 | -0.18700 | 221 ft | 20 kts | 258° |
| 2026-05-04 14:45 | 51.15529 | -0.18820 | 227 ft | 15 kts | 175° |
| 2026-05-04 14:46 | 51.15421 | -0.18786 | 220 ft | 16 kts | 169° |
| 2026-05-04 14:46 | 51.15310 | -0.18750 | 225 ft | 17 kts | 167° |
| 2026-05-04 14:46 | 51.15196 | -0.18710 | 226 ft | 17 kts | 167° |
| 2026-05-04 14:46 | 51.15121 | -0.18800 | 225 ft | 15 kts | 251° |
| 2026-05-04 14:47 | 51.15097 | -0.18966 | 224 ft | 16 kts | 257° |
| 2026-05-04 14:47 | 51.15069 | -0.19163 | 221 ft | 21 kts | 257° |
| 2026-05-04 14:47 | 51.15034 | -0.19418 | 223 ft | 26 kts | 257° |
| 2026-05-04 14:47 | 51.14992 | -0.19718 | 221 ft | 29 kts | 257° |
| 2026-05-04 14:48 | 51.14948 | -0.20035 | 224 ft | 29 kts | 258° |
| 2026-05-04 14:48 | 51.14905 | -0.20349 | 223 ft | 29 kts | 257° |
| 2026-05-04 14:48 | 51.14862 | -0.20667 | 218 ft | 29 kts | 258° |
| 2026-05-04 14:48 | 51.14819 | -0.20977 | 224 ft | 28 kts | 258° |
| 2026-05-04 14:49 | 51.14772 | -0.21265 | 218 ft | 24 kts | 255° |
| 2026-05-04 14:49 | 51.14702 | -0.21388 | 226 ft | 15 kts | 178° |
| 2026-05-04 14:49 | 51.14613 | -0.21321 | 227 ft | 14 kts | 168° |
| 2026-05-04 14:49 | 51.14523 | -0.21235 | 227 ft | 16 kts | 126° |
| 2026-05-04 14:50 | 51.14521 | -0.21169 | 222 ft | 0 kts | 78° |
| 2026-05-04 14:51 | 51.14554 | -0.20929 | 227 ft | 58 kts | 77° |
| 2026-05-04 14:51 | 51.14697 | -0.19879 | 226 ft | 134 kts | 77° |
| 2026-05-04 14:52 | 51.14939 | -0.18154 | 582 ft | 165 kts | 76° |
| 2026-05-04 14:52 | 51.15187 | -0.16403 | 1680 ft | 161 kts | 77° |
| 2026-05-04 14:52 | 51.15434 | -0.14632 | 2037 ft | 170 kts | 77° |
| 2026-05-04 14:52 | 51.15699 | -0.12723 | 2296 ft | 182 kts | 77° |
| 2026-05-04 14:53 | 51.15973 | -0.10682 | 2594 ft | 193 kts | 78° |
| 2026-05-04 14:53 | 51.16253 | -0.08533 | 2914 ft | 205 kts | 78° |
| 2026-05-04 14:53 | 51.16558 | -0.06208 | 3155 ft | 223 kts | 77° |
| 2026-05-04 14:53 | 51.16872 | -0.03718 | 3478 ft | 238 kts | 80° |
| 2026-05-04 14:54 | 51.16986 | -0.01002 | 3885 ft | 249 kts | 91° |
| 2026-05-04 14:54 | 51.16882 | 0.01751 | 4412 ft | 254 kts | 94° |
| 2026-05-04 14:54 | 51.16744 | 0.04611 | 4951 ft | 260 kts | 92° |
| 2026-05-04 14:54 | 51.16684 | 0.07499 | 5463 ft | 265 kts | 90° |
| 2026-05-04 14:55 | 51.16637 | 0.10482 | 6009 ft | 270 kts | 91° |
| 2026-05-04 14:55 | 51.16585 | 0.13492 | 6557 ft | 274 kts | 91° |
| 2026-05-04 14:55 | 51.16532 | 0.16550 | 7087 ft | 277 kts | 91° |
| 2026-05-04 14:55 | 51.16532 | 0.19644 | 7657 ft | 279 kts | 89° |
| 2026-05-04 14:56 | 51.16554 | 0.22715 | 8230 ft | 281 kts | 90° |
| 2026-05-04 14:56 | 51.16569 | 0.25865 | 8827 ft | 284 kts | 90° |
| 2026-05-04 14:56 | 51.16579 | 0.29007 | 9409 ft | 287 kts | 90° |
| 2026-05-04 14:56 | 51.16586 | 0.32215 | 10011 ft | 289 kts | 90° |
| 2026-05-04 14:57 | 51.16593 | 0.35406 | 10532 ft | 292 kts | 90° |
| 2026-05-04 14:57 | 51.16596 | 0.38659 | 11069 ft | 294 kts | 91° |
| 2026-05-04 14:57 | 51.16597 | 0.41938 | 11607 ft | 297 kts | 91° |
| 2026-05-04 14:57 | 51.16597 | 0.45149 | 12132 ft | 299 kts | 91° |
| 2026-05-04 14:58 | 51.16596 | 0.49524 | 12831 ft | 303 kts | 91° |
| 2026-05-04 14:58 | 51.16585 | 0.56557 | 13327 ft | 329 kts | 91° |
| 2026-05-04 14:58 | 51.16578 | 0.64026 | 13766 ft | 353 kts | 91° |
| 2026-05-04 14:58 | 51.16568 | 0.72142 | 14130 ft | 375 kts | 91° |
| 2026-05-04 14:59 | 51.16549 | 0.80714 | 14497 ft | 395 kts | 91° |
| 2026-05-04 14:59 | 51.16523 | 0.89527 | 15150 ft | 403 kts | 91° |
| 2026-05-04 14:59 | 51.16445 | 1.07614 | 16757 ft | 411 kts | 91° |
| 2026-05-04 15:00 | 51.16395 | 1.16711 | 17532 ft | 415 kts | 92° |
| 2026-05-04 15:00 | 51.16337 | 1.25899 | 18283 ft | 420 kts | 92° |
| 2026-05-04 15:00 | 51.16270 | 1.35301 | 18928 ft | 424 kts | 92° |
| 2026-05-04 15:01 | 51.15481 | 1.54210 | 20157 ft | 432 kts | 97° |
| 2026-05-04 15:01 | 51.14942 | 1.63731 | 20757 ft | 436 kts | 96° |
| 2026-05-04 15:01 | 51.14439 | 1.73388 | 21380 ft | 441 kts | 96° |
| 2026-05-04 15:01 | 51.13942 | 1.83205 | 21997 ft | 445 kts | 96° |
| 2026-05-04 15:02 | 51.13439 | 1.93059 | 22584 ft | 450 kts | 96° |
| 2026-05-04 15:02 | 51.12922 | 2.03055 | 23178 ft | 455 kts | 97° |
| 2026-05-04 15:02 | 51.12392 | 2.13076 | 23721 ft | 459 kts | 97° |
| 2026-05-04 15:02 | 51.11836 | 2.23293 | 24250 ft | 463 kts | 97° |
| 2026-05-04 15:03 | 51.11265 | 2.33636 | 24791 ft | 466 kts | 97° |
| 2026-05-04 15:03 | 51.10695 | 2.43842 | 25316 ft | 469 kts | 97° |
| 2026-05-04 15:03 | 51.10104 | 2.54259 | 25864 ft | 473 kts | 97° |
| 2026-05-04 15:03 | 51.09385 | 2.64583 | 26404 ft | 474 kts | 104° |
| 2026-05-04 15:04 | 51.07786 | 2.74781 | 27017 ft | 474 kts | 108° |
| 2026-05-04 15:04 | 51.05957 | 2.84895 | 27628 ft | 476 kts | 109° |
| 2026-05-04 15:04 | 51.04077 | 2.95024 | 28224 ft | 478 kts | 109° |
| 2026-05-04 15:04 | 51.02193 | 3.05212 | 28807 ft | 481 kts | 109° |
| 2026-05-04 15:05 | 51.00859 | 3.12444 | 29202 ft | 482 kts | 110° |
| 2026-05-04 15:05 | 50.99909 | 3.17588 | 29500 ft | 483 kts | 110° |
| 2026-05-04 15:05 | 50.98959 | 3.22718 | 29782 ft | 484 kts | 110° |
| 2026-05-04 15:05 | 50.97921 | 3.27728 | 30091 ft | 481 kts | 115° |
| 2026-05-04 15:06 | 50.96808 | 3.32745 | 30404 ft | 482 kts | 111° |
| 2026-05-04 15:06 | 50.95857 | 3.37885 | 30665 ft | 484 kts | 109° |
| 2026-05-04 15:06 | 50.94984 | 3.42993 | 30920 ft | 484 kts | 109° |
| 2026-05-04 15:07 | 50.91584 | 3.62104 | 31941 ft | 483 kts | 110° |
| 2026-05-04 15:07 | 50.89649 | 3.72315 | 32432 ft | 483 kts | 111° |
| 2026-05-04 15:07 | 50.87719 | 3.82379 | 32707 ft | 483 kts | 111° |
| 2026-05-04 15:07 | 50.85746 | 3.92625 | 33029 ft | 482 kts | 111° |
| 2026-05-04 15:08 | 50.83782 | 4.02791 | 33568 ft | 482 kts | 112° |
| 2026-05-04 15:08 | 50.81830 | 4.12846 | 34055 ft | 482 kts | 112° |
| 2026-05-04 15:08 | 50.79845 | 4.23024 | 34466 ft | 482 kts | 112° |
| 2026-05-04 15:08 | 50.77872 | 4.33084 | 34874 ft | 482 kts | 112° |
| 2026-05-04 15:09 | 50.75869 | 4.43243 | 35239 ft | 483 kts | 111° |
| 2026-05-04 15:09 | 50.73852 | 4.53417 | 35599 ft | 483 kts | 111° |
| 2026-05-04 15:09 | 50.72515 | 4.60130 | 35820 ft | 484 kts | 111° |
| 2026-05-04 15:10 | 50.67761 | 4.83812 | 36536 ft | 486 kts | 111° |
| 2026-05-04 15:10 | 50.65721 | 4.93905 | 36831 ft | 487 kts | 111° |
| 2026-05-04 15:10 | 50.62226 | 5.10932 | 36985 ft | 495 kts | 111° |
| 2026-05-04 15:11 | 50.59386 | 5.24626 | 36988 ft | 494 kts | 111° |
| 2026-05-04 15:11 | 50.55803 | 5.41809 | 36992 ft | 495 kts | 112° |
| 2026-05-04 15:12 | 50.51564 | 5.62411 | 36988 ft | 498 kts | 107° |
| 2026-05-04 15:12 | 50.49996 | 5.73540 | 36989 ft | 499 kts | 105° |
| 2026-05-04 15:13 | 50.48602 | 5.84261 | 36984 ft | 499 kts | 105° |
| 2026-05-04 15:13 | 50.46988 | 5.94891 | 36983 ft | 498 kts | 108° |
| 2026-05-04 15:14 | 50.45225 | 6.05365 | 36984 ft | 498 kts | 108° |
| 2026-05-04 15:14 | 50.43489 | 6.15847 | 36981 ft | 499 kts | 108° |
| 2026-05-04 15:15 | 50.41767 | 6.26403 | 36978 ft | 499 kts | 108° |
| 2026-05-04 15:15 | 50.40050 | 6.36938 | 36974 ft | 499 kts | 108° |
| 2026-05-04 15:16 | 50.37448 | 6.52764 | 36972 ft | 499 kts | 108° |
| 2026-05-04 15:17 | 50.34835 | 6.68495 | 36972 ft | 500 kts | 108° |
| 2026-05-04 15:17 | 50.32192 | 6.84261 | 36988 ft | 500 kts | 108° |
| 2026-05-04 15:18 | 50.28857 | 7.03942 | 37003 ft | 501 kts | 109° |
| 2026-05-04 15:19 | 50.23432 | 7.35510 | 36995 ft | 501 kts | 109° |
| 2026-05-04 15:19 | 50.17913 | 7.67040 | 36987 ft | 502 kts | 109° |
| 2026-05-04 15:20 | 50.14201 | 7.87948 | 36985 ft | 501 kts | 109° |
| 2026-05-04 15:20 | 50.10536 | 8.08348 | 36987 ft | 501 kts | 109° |
| 2026-05-04 15:21 | 50.06775 | 8.29050 | 36987 ft | 501 kts | 109° |
| 2026-05-04 15:22 | 50.01049 | 8.60123 | 36967 ft | 501 kts | 110° |
| 2026-05-04 15:22 | 49.96534 | 8.84258 | 36968 ft | 501 kts | 110° |
| 2026-05-04 15:23 | 49.94713 | 8.93908 | 36971 ft | 501 kts | 110° |
| 2026-05-04 15:23 | 49.92757 | 9.04218 | 36971 ft | 501 kts | 110° |
| 2026-05-04 15:24 | 49.87625 | 9.30999 | 36971 ft | 502 kts | 110° |
| 2026-05-04 15:25 | 49.83618 | 9.51649 | 36975 ft | 502 kts | 110° |
| 2026-05-04 15:26 | 49.77532 | 9.82600 | 36972 ft | 503 kts | 110° |
| 2026-05-04 15:26 | 49.71343 | 10.13569 | 36968 ft | 503 kts | 110° |
| 2026-05-04 15:27 | 49.65075 | 10.44448 | 36963 ft | 503 kts | 110° |
| 2026-05-04 15:28 | 49.58716 | 10.75287 | 36966 ft | 503 kts | 110° |
| 2026-05-04 15:29 | 49.52060 | 11.05892 | 36977 ft | 500 kts | 118° |
| 2026-05-04 15:30 | 49.30116 | 11.72334 | 36952 ft | 499 kts | 120° |
| 2026-05-04 15:31 | 49.20550 | 12.00660 | 36950 ft | 499 kts | 120° |
| 2026-05-04 15:32 | 49.04438 | 12.47675 | 36928 ft | 499 kts | 120° |
| 2026-05-04 15:34 | 48.88168 | 12.94290 | 36927 ft | 500 kts | 120° |
| 2026-05-04 15:34 | 48.78278 | 13.22223 | 36923 ft | 500 kts | 120° |
| 2026-05-04 15:35 | 48.68352 | 13.49959 | 36917 ft | 499 kts | 121° |
| 2026-05-04 15:36 | 48.58065 | 13.77306 | 36919 ft | 499 kts | 123° |
| 2026-05-04 15:36 | 48.51034 | 13.95309 | 36920 ft | 499 kts | 122° |
| 2026-05-04 15:37 | 48.44017 | 14.13283 | 36913 ft | 499 kts | 122° |
| 2026-05-04 15:37 | 48.30125 | 14.48499 | 36910 ft | 500 kts | 123° |
| 2026-05-04 15:38 | 48.15751 | 14.84448 | 36916 ft | 500 kts | 123° |
| 2026-05-04 15:38 | 48.01381 | 15.19914 | 36936 ft | 500 kts | 122° |
| 2026-05-04 15:39 | 47.87001 | 15.54947 | 36949 ft | 500 kts | 123° |
| 2026-05-04 15:40 | 47.64925 | 16.07860 | 36968 ft | 502 kts | 123° |
| 2026-05-04 15:40 | 47.50085 | 16.42856 | 36988 ft | 502 kts | 123° |
| 2026-05-04 15:41 | 47.36773 | 16.79102 | 36991 ft | 502 kts | 114° |
| 2026-05-04 15:41 | 47.25147 | 17.16179 | 37004 ft | 500 kts | 115° |
| 2026-05-04 15:42 | 47.13289 | 17.53325 | 37009 ft | 499 kts | 115° |
| 2026-05-04 15:42 | 47.01440 | 17.89912 | 37036 ft | 497 kts | 115° |
| 2026-05-04 15:43 | 46.89478 | 18.26326 | 37040 ft | 495 kts | 115° |
| 2026-05-04 15:43 | 46.77464 | 18.62393 | 37037 ft | 495 kts | 115° |
| 2026-05-04 15:44 | 46.65321 | 18.98341 | 37048 ft | 495 kts | 115° |
| 2026-05-04 15:44 | 46.53034 | 19.34221 | 37059 ft | 496 kts | 115° |
| 2026-05-04 15:45 | 46.47432 | 19.50421 | 37068 ft | 496 kts | 115° |
| 2026-05-04 15:45 | 46.34993 | 19.86036 | 37075 ft | 496 kts | 115° |
| 2026-05-04 15:46 | 46.25571 | 20.12699 | 37080 ft | 495 kts | 115° |
| 2026-05-04 15:46 | 46.22420 | 20.21559 | 37085 ft | 495 kts | 115° |
| 2026-05-04 15:47 | 46.19278 | 20.30363 | 37084 ft | 494 kts | 115° |
| 2026-05-04 15:47 | 46.16089 | 20.39148 | 37088 ft | 495 kts | 117° |
| 2026-05-04 15:48 | 46.12652 | 20.47742 | 37087 ft | 495 kts | 118° |
| 2026-05-04 15:48 | 46.07436 | 20.60581 | 37091 ft | 494 kts | 118° |
| 2026-05-04 15:49 | 46.04005 | 20.69134 | 37087 ft | 494 kts | 118° |
| 2026-05-04 15:49 | 46.00558 | 20.77737 | 37087 ft | 494 kts | 118° |
| 2026-05-04 15:50 | 45.97118 | 20.86296 | 37088 ft | 494 kts | 118° |
| 2026-05-04 15:50 | 45.93676 | 20.94828 | 37087 ft | 495 kts | 118° |
| 2026-05-04 15:51 | 45.90233 | 21.03336 | 37081 ft | 495 kts | 118° |
| 2026-05-04 15:51 | 45.86747 | 21.11920 | 37078 ft | 495 kts | 118° |
| 2026-05-04 15:52 | 45.83281 | 21.20427 | 37075 ft | 495 kts | 118° |
| 2026-05-04 15:52 | 45.79812 | 21.28919 | 37075 ft | 495 kts | 118° |
| 2026-05-04 15:53 | 45.76321 | 21.37440 | 37076 ft | 495 kts | 118° |
| 2026-05-04 15:53 | 45.72837 | 21.45917 | 37075 ft | 495 kts | 118° |
| 2026-05-04 15:54 | 45.69347 | 21.54383 | 37081 ft | 495 kts | 118° |
| 2026-05-04 15:54 | 45.65845 | 21.62851 | 37079 ft | 495 kts | 118° |
| 2026-05-04 15:55 | 45.62325 | 21.71337 | 37077 ft | 494 kts | 118° |
| 2026-05-04 15:55 | 45.58821 | 21.79758 | 37076 ft | 494 kts | 118° |
| 2026-05-04 15:56 | 45.55312 | 21.88166 | 37076 ft | 494 kts | 119° |
| 2026-05-04 15:56 | 45.51798 | 21.96563 | 37076 ft | 494 kts | 119° |
| 2026-05-04 15:57 | 45.48848 | 22.03590 | 37075 ft | 494 kts | 119° |
| 2026-05-04 15:57 | 45.45324 | 22.11963 | 37075 ft | 494 kts | 119° |
| 2026-05-04 15:58 | 45.41780 | 22.20358 | 37077 ft | 494 kts | 119° |
| 2026-05-04 15:58 | 45.38246 | 22.28707 | 37077 ft | 494 kts | 119° |
| 2026-05-04 15:59 | 45.34706 | 22.37044 | 37076 ft | 493 kts | 119° |
| 2026-05-04 15:59 | 45.31133 | 22.45431 | 37073 ft | 493 kts | 119° |
| 2026-05-04 16:00 | 45.27584 | 22.53737 | 37073 ft | 493 kts | 119° |
| 2026-05-04 16:00 | 45.24025 | 22.62047 | 37068 ft | 493 kts | 119° |
| 2026-05-04 16:01 | 45.20468 | 22.70324 | 37063 ft | 492 kts | 120° |
| 2026-05-04 16:01 | 45.16899 | 22.78605 | 37058 ft | 492 kts | 120° |
| 2026-05-04 16:02 | 45.13319 | 22.86887 | 37047 ft | 492 kts | 120° |
| 2026-05-04 16:03 | 45.07951 | 22.99259 | 37045 ft | 491 kts | 120° |
| 2026-05-04 16:03 | 45.04384 | 23.07453 | 37035 ft | 491 kts | 120° |
| 2026-05-04 16:04 | 45.00806 | 23.15648 | 37014 ft | 491 kts | 120° |
| 2026-05-04 16:04 | 44.95420 | 23.27934 | 37028 ft | 491 kts | 120° |
| 2026-05-04 16:05 | 44.91804 | 23.36157 | 37039 ft | 491 kts | 120° |
| 2026-05-04 16:06 | 44.86406 | 23.48393 | 37034 ft | 492 kts | 120° |
| 2026-05-04 16:07 | 44.79154 | 23.64739 | 37031 ft | 491 kts | 121° |
| 2026-05-04 16:08 | 44.71903 | 23.80992 | 37033 ft | 490 kts | 121° |
| 2026-05-04 16:09 | 44.62798 | 24.01267 | 37038 ft | 490 kts | 121° |
| 2026-05-04 16:10 | 44.55511 | 24.17397 | 37038 ft | 490 kts | 121° |
| 2026-05-04 16:11 | 44.48164 | 24.33565 | 37046 ft | 491 kts | 121° |
| 2026-05-04 16:12 | 44.38292 | 24.58600 | 37041 ft | 490 kts | 115° |
| 2026-05-04 16:13 | 44.32095 | 24.75583 | 37043 ft | 490 kts | 116° |
| 2026-05-04 16:14 | 44.25855 | 24.92464 | 37049 ft | 490 kts | 116° |
| 2026-05-04 16:16 | 44.18003 | 25.13566 | 37047 ft | 489 kts | 116° |
| 2026-05-04 16:17 | 44.10134 | 25.34557 | 37055 ft | 489 kts | 116° |
| 2026-05-04 16:18 | 44.03838 | 25.51238 | 37056 ft | 488 kts | 116° |
| 2026-05-04 16:19 | 43.95912 | 25.72094 | 37038 ft | 488 kts | 116° |
| 2026-05-04 16:20 | 43.87962 | 25.92863 | 37045 ft | 488 kts | 116° |
| 2026-05-04 16:22 | 43.79969 | 26.13590 | 37046 ft | 487 kts | 117° |
| 2026-05-04 16:23 | 43.67881 | 26.44646 | 37042 ft | 487 kts | 117° |
| 2026-05-04 16:25 | 43.48473 | 26.93812 | 37040 ft | 485 kts | 117° |
| 2026-05-04 16:26 | 43.25635 | 27.50598 | 37037 ft | 485 kts | 118° |
| 2026-05-04 16:28 | 43.09142 | 27.90921 | 37045 ft | 484 kts | 118° |
| 2026-05-04 16:29 | 42.86005 | 28.46559 | 37038 ft | 480 kts | 118° |
| 2026-05-04 16:31 | 42.69395 | 28.85847 | 37021 ft | 478 kts | 118° |
| 2026-05-04 16:32 | 42.49315 | 29.32663 | 37006 ft | 479 kts | 118° |
| 2026-05-04 16:33 | 42.36077 | 29.64019 | 36992 ft | 476 kts | 109° |
| 2026-05-04 16:34 | 42.29546 | 29.89351 | 36978 ft | 475 kts | 108° |
| 2026-05-04 16:35 | 42.16558 | 30.39756 | 36955 ft | 474 kts | 108° |
| 2026-05-04 16:36 | 42.10012 | 30.64754 | 36938 ft | 473 kts | 109° |
| 2026-05-04 16:37 | 42.03400 | 30.89740 | 36928 ft | 473 kts | 109° |
| 2026-05-04 16:38 | 41.94523 | 31.22947 | 36912 ft | 471 kts | 110° |
| 2026-05-04 16:39 | 41.83320 | 31.64249 | 36903 ft | 472 kts | 111° |
| 2026-05-04 16:40 | 41.74981 | 31.94471 | 36907 ft | 471 kts | 111° |
| 2026-05-04 16:41 | 41.63485 | 32.35694 | 36918 ft | 475 kts | 112° |
| 2026-05-04 16:43 | 41.51772 | 32.76883 | 36926 ft | 476 kts | 112° |
| 2026-05-04 16:43 | 41.44370 | 33.01504 | 36927 ft | 474 kts | 119° |
| 2026-05-04 16:45 | 41.25626 | 33.47559 | 36897 ft | 472 kts | 120° |
| 2026-05-04 16:46 | 41.10369 | 33.85971 | 36854 ft | 470 kts | 120° |
| 2026-05-04 16:47 | 40.98069 | 34.16531 | 36814 ft | 468 kts | 121° |
| 2026-05-04 16:48 | 40.85759 | 34.46803 | 36790 ft | 467 kts | 121° |
| 2026-05-04 16:49 | 40.73419 | 34.76836 | 36777 ft | 466 kts | 122° |
| 2026-05-04 16:50 | 40.60576 | 35.06510 | 36776 ft | 465 kts | 123° |
| 2026-05-04 16:51 | 40.50933 | 35.28686 | 36782 ft | 465 kts | 124° |
| 2026-05-04 16:52 | 40.38049 | 35.58063 | 36776 ft | 465 kts | 124° |
| 2026-05-04 16:53 | 40.28302 | 35.80096 | 36799 ft | 466 kts | 124° |
| 2026-05-04 16:54 | 40.15211 | 36.09448 | 36825 ft | 467 kts | 125° |
| 2026-05-04 16:55 | 39.95420 | 36.53297 | 36824 ft | 467 kts | 126° |
| 2026-05-04 16:56 | 39.78785 | 36.89679 | 36857 ft | 469 kts | 126° |
| 2026-05-04 16:57 | 39.68893 | 37.11759 | 36835 ft | 472 kts | 126° |
| 2026-05-04 16:58 | 39.55593 | 37.41218 | 36809 ft | 476 kts | 126° |
| 2026-05-04 17:00 | 39.35224 | 37.85664 | 36833 ft | 481 kts | 127° |
| 2026-05-04 17:01 | 39.17951 | 38.22823 | 36848 ft | 484 kts | 128° |
| 2026-05-04 17:02 | 39.04036 | 38.52441 | 36881 ft | 485 kts | 128° |
| 2026-05-04 17:03 | 38.93514 | 38.74681 | 36874 ft | 486 kts | 128° |
| 2026-05-04 17:03 | 38.82896 | 38.96965 | 36886 ft | 488 kts | 128° |
| 2026-05-04 17:04 | 38.69384 | 39.27325 | 36910 ft | 502 kts | 118° |
| 2026-05-04 17:05 | 38.59571 | 39.61085 | 36910 ft | 507 kts | 117° |
| 2026-05-04 17:06 | 38.52214 | 39.86533 | 36929 ft | 512 kts | 117° |
| 2026-05-04 17:07 | 38.45555 | 40.09324 | 36934 ft | 518 kts | 117° |
| 2026-05-04 17:07 | 38.39646 | 40.29392 | 36938 ft | 521 kts | 117° |
| 2026-05-04 17:08 | 38.31922 | 40.55392 | 36936 ft | 525 kts | 117° |
| 2026-05-04 17:09 | 38.26710 | 40.72803 | 36940 ft | 526 kts | 117° |
| 2026-05-04 17:09 | 38.21438 | 40.90188 | 36937 ft | 527 kts | 118° |
| 2026-05-04 17:10 | 38.07960 | 41.33650 | 36925 ft | 530 kts | 118° |
| 2026-05-04 17:11 | 38.02622 | 41.50999 | 36940 ft | 530 kts | 118° |
| 2026-05-04 17:12 | 37.94520 | 41.77128 | 36955 ft | 530 kts | 118° |
| 2026-05-04 17:12 | 37.90555 | 41.95168 | 37445 ft | 544 kts | 102° |
| 2026-05-04 17:13 | 37.88782 | 42.23989 | 38564 ft | 547 kts | 100° |
| 2026-05-04 17:14 | 37.86834 | 42.52831 | 38988 ft | 552 kts | 100° |
| 2026-05-04 17:14 | 37.85988 | 42.62513 | 38988 ft | 546 kts | 108° |
| 2026-05-04 17:14 | 37.79743 | 42.79229 | 38979 ft | 523 kts | 129° |
| 2026-05-04 17:15 | 37.75897 | 42.87128 | 38983 ft | 525 kts | 129° |
| 2026-05-04 17:16 | 37.60697 | 43.18549 | 38974 ft | 525 kts | 129° |
| 2026-05-04 17:17 | 37.45348 | 43.50118 | 38967 ft | 529 kts | 129° |
| 2026-05-04 17:18 | 37.29918 | 43.81572 | 38956 ft | 529 kts | 129° |
| 2026-05-04 17:18 | 37.15750 | 43.97465 | 38935 ft | 481 kts | 167° |
| 2026-05-04 17:19 | 36.90480 | 44.09068 | 38916 ft | 481 kts | 168° |
| 2026-05-04 17:19 | 36.65492 | 44.20130 | 38901 ft | 462 kts | 172° |
| 2026-05-04 17:20 | 36.41114 | 44.29953 | 38905 ft | 462 kts | 171° |
| 2026-05-04 17:20 | 36.04460 | 44.44771 | 38902 ft | 462 kts | 172° |
| 2026-05-04 17:21 | 35.55570 | 44.64310 | 38899 ft | 461 kts | 172° |
| 2026-05-04 17:22 | 35.31213 | 44.73951 | 38897 ft | 460 kts | 173° |
| 2026-05-04 17:23 | 34.82540 | 44.93032 | 38886 ft | 459 kts | 173° |
| 2026-05-04 17:24 | 34.45994 | 45.07206 | 38880 ft | 458 kts | 173° |
| 2026-05-04 17:25 | 33.97416 | 45.25842 | 38877 ft | 460 kts | 173° |
| 2026-05-04 17:26 | 33.48489 | 45.44389 | 38896 ft | 461 kts | 173° |
| 2026-05-04 17:27 | 32.91176 | 45.65840 | 38860 ft | 464 kts | 174° |
| 2026-05-04 17:27 | 32.68232 | 45.82857 | 38848 ft | 502 kts | 153° |
| 2026-05-04 17:28 | 32.46409 | 46.03162 | 38839 ft | 503 kts | 153° |
| 2026-05-04 17:29 | 31.79752 | 46.64200 | 38804 ft | 505 kts | 154° |
| 2026-05-04 17:31 | 31.24052 | 47.14335 | 38770 ft | 505 kts | 153° |
| 2026-05-04 17:32 | 30.69239 | 47.65285 | 38744 ft | 509 kts | 148° |
| 2026-05-04 17:33 | 30.38797 | 47.96940 | 38737 ft | 505 kts | 149° |
| 2026-05-04 17:34 | 30.28306 | 48.07768 | 38728 ft | 505 kts | 149° |
| 2026-05-04 17:35 | 30.15213 | 48.21236 | 38739 ft | 505 kts | 149° |
| 2026-05-04 17:36 | 30.09928 | 48.26658 | 38751 ft | 505 kts | 149° |
| 2026-05-04 17:36 | 30.04670 | 48.32044 | 38761 ft | 506 kts | 149° |
| 2026-05-04 17:37 | 29.99416 | 48.37418 | 38764 ft | 506 kts | 149° |
| 2026-05-04 17:37 | 29.94155 | 48.42791 | 38767 ft | 507 kts | 149° |
| 2026-05-04 17:38 | 29.88860 | 48.48115 | 38762 ft | 502 kts | 153° |
| 2026-05-04 17:38 | 29.86009 | 48.50342 | 38769 ft | 488 kts | 162° |
| 2026-05-04 17:38 | 29.83027 | 48.52206 | 38765 ft | 484 kts | 163° |
| 2026-05-04 17:39 | 29.74037 | 48.57419 | 38767 ft | 483 kts | 165° |
| 2026-05-04 17:39 | 29.68024 | 48.60863 | 38768 ft | 483 kts | 165° |
| 2026-05-04 17:40 | 29.62040 | 48.64311 | 38768 ft | 483 kts | 164° |
| 2026-05-04 17:40 | 29.56035 | 48.67778 | 38769 ft | 483 kts | 164° |
| 2026-05-04 17:41 | 29.50029 | 48.71242 | 38771 ft | 483 kts | 164° |
| 2026-05-04 17:41 | 29.44038 | 48.74692 | 38771 ft | 483 kts | 164° |
| 2026-05-04 17:42 | 29.38001 | 48.78165 | 38772 ft | 482 kts | 164° |
| 2026-05-04 17:42 | 29.32040 | 48.81597 | 38777 ft | 482 kts | 164° |
| 2026-05-04 17:43 | 29.26045 | 48.85045 | 38777 ft | 482 kts | 164° |
| 2026-05-04 17:43 | 29.20051 | 48.88488 | 38779 ft | 482 kts | 164° |
| 2026-05-04 17:44 | 29.14053 | 48.91929 | 38778 ft | 482 kts | 164° |
| 2026-05-04 17:44 | 29.08047 | 48.95371 | 38788 ft | 482 kts | 164° |
| 2026-05-04 17:45 | 29.02059 | 48.98783 | 38786 ft | 482 kts | 164° |
| 2026-05-04 17:45 | 28.96069 | 49.02194 | 38780 ft | 482 kts | 164° |
| 2026-05-04 17:46 | 28.90065 | 49.05611 | 38786 ft | 482 kts | 164° |
| 2026-05-04 17:46 | 28.84020 | 49.09053 | 38786 ft | 483 kts | 164° |
| 2026-05-04 17:47 | 28.78046 | 49.12579 | 38788 ft | 485 kts | 163° |
| 2026-05-04 17:47 | 28.72089 | 49.16147 | 38786 ft | 486 kts | 163° |
| 2026-05-04 17:48 | 28.66094 | 49.19714 | 38788 ft | 486 kts | 163° |
| 2026-05-04 17:48 | 28.60073 | 49.23275 | 38790 ft | 487 kts | 163° |
| 2026-05-04 17:49 | 28.54062 | 49.26807 | 38785 ft | 487 kts | 164° |
| 2026-05-04 17:49 | 28.51077 | 49.28748 | 38788 ft | 498 kts | 156° |
| 2026-05-04 17:49 | 28.48300 | 49.31130 | 38790 ft | 507 kts | 150° |
| 2026-05-04 17:50 | 28.42884 | 49.36398 | 38791 ft | 511 kts | 149° |
| 2026-05-04 17:50 | 28.37572 | 49.41728 | 38791 ft | 512 kts | 149° |
| 2026-05-04 17:51 | 28.32207 | 49.47022 | 38794 ft | 508 kts | 152° |
| 2026-05-04 17:51 | 28.26671 | 49.51947 | 38793 ft | 506 kts | 153° |
| 2026-05-04 17:52 | 28.21062 | 49.56788 | 38798 ft | 506 kts | 153° |
| 2026-05-04 17:52 | 28.15470 | 49.61604 | 38792 ft | 506 kts | 153° |
| 2026-05-04 17:53 | 28.09867 | 49.66442 | 38787 ft | 507 kts | 153° |
| 2026-05-04 17:53 | 28.04261 | 49.71285 | 38789 ft | 507 kts | 153° |
| 2026-05-04 17:54 | 27.98638 | 49.76137 | 38794 ft | 508 kts | 153° |
| 2026-05-04 17:54 | 27.93030 | 49.80968 | 38790 ft | 508 kts | 153° |
| 2026-05-04 17:55 | 27.87417 | 49.85798 | 38803 ft | 508 kts | 152° |
| 2026-05-04 17:55 | 27.81786 | 49.90635 | 38795 ft | 509 kts | 152° |
| 2026-05-04 17:56 | 27.76128 | 49.95491 | 38434 ft | 509 kts | 152° |
| 2026-05-04 17:56 | 27.73351 | 49.97874 | 37922 ft | 505 kts | 152° |
| 2026-05-04 17:56 | 27.70549 | 50.00276 | 37313 ft | 503 kts | 152° |
| 2026-05-04 17:57 | 27.67751 | 50.02676 | 36919 ft | 498 kts | 152° |
| 2026-05-04 17:57 | 27.65034 | 50.05004 | 36490 ft | 494 kts | 152° |
| 2026-05-04 17:57 | 27.62282 | 50.07359 | 36045 ft | 490 kts | 152° |
| 2026-05-04 17:57 | 27.59603 | 50.09648 | 35588 ft | 487 kts | 152° |
| 2026-05-04 17:58 | 27.56895 | 50.11958 | 35155 ft | 484 kts | 152° |
| 2026-05-04 17:58 | 27.54252 | 50.14214 | 34772 ft | 479 kts | 151° |
| 2026-05-04 17:58 | 27.51587 | 50.16486 | 34402 ft | 475 kts | 151° |
| 2026-05-04 17:58 | 27.48976 | 50.18718 | 33657 ft | 465 kts | 151° |
| 2026-05-04 17:59 | 27.46430 | 50.20888 | 32576 ft | 463 kts | 151° |
| 2026-05-04 17:59 | 27.43836 | 50.23090 | 31431 ft | 462 kts | 150° |
| 2026-05-04 17:59 | 27.38706 | 50.27437 | 29007 ft | 464 kts | 149° |
| 2026-05-04 18:00 | 27.36113 | 50.29629 | 28161 ft | 471 kts | 149° |
| 2026-05-04 18:00 | 27.33497 | 50.31850 | 27763 ft | 465 kts | 148° |
| 2026-05-04 18:00 | 27.30927 | 50.34037 | 27486 ft | 461 kts | 148° |
| 2026-05-04 18:00 | 27.28387 | 50.36197 | 27227 ft | 461 kts | 148° |
| 2026-05-04 18:01 | 27.25823 | 50.38369 | 26977 ft | 463 kts | 148° |
| 2026-05-04 18:01 | 27.23241 | 50.40555 | 26729 ft | 464 kts | 148° |
| 2026-05-04 18:01 | 27.20634 | 50.42762 | 26472 ft | 465 kts | 148° |
| 2026-05-04 18:02 | 27.15478 | 50.47122 | 26047 ft | 465 kts | 147° |
| 2026-05-04 18:02 | 27.12910 | 50.49293 | 25850 ft | 465 kts | 147° |
| 2026-05-04 18:02 | 27.10310 | 50.51490 | 25670 ft | 465 kts | 147° |
| 2026-05-04 18:02 | 27.07738 | 50.53661 | 25431 ft | 466 kts | 147° |
| 2026-05-04 18:03 | 27.05145 | 50.55849 | 25157 ft | 466 kts | 147° |
| 2026-05-04 18:03 | 27.02550 | 50.58037 | 24875 ft | 466 kts | 147° |
| 2026-05-04 18:03 | 26.99985 | 50.60198 | 24607 ft | 466 kts | 147° |
| 2026-05-04 18:03 | 26.97368 | 50.62403 | 24341 ft | 466 kts | 147° |
| 2026-05-04 18:04 | 26.94792 | 50.64571 | 24146 ft | 466 kts | 146° |
| 2026-05-04 18:04 | 26.92193 | 50.66756 | 23958 ft | 466 kts | 146° |
| 2026-05-04 18:04 | 26.87002 | 50.71120 | 23431 ft | 466 kts | 146° |
| 2026-05-04 18:05 | 26.84395 | 50.73309 | 23226 ft | 466 kts | 146° |
| 2026-05-04 18:05 | 26.81825 | 50.75466 | 23013 ft | 467 kts | 146° |
| 2026-05-04 18:05 | 26.79220 | 50.77651 | 22803 ft | 467 kts | 146° |
| 2026-05-04 18:05 | 26.76615 | 50.79836 | 22593 ft | 467 kts | 146° |
| 2026-05-04 18:06 | 26.71410 | 50.84196 | 22176 ft | 468 kts | 146° |
| 2026-05-04 18:06 | 26.68800 | 50.86380 | 21985 ft | 468 kts | 146° |
| 2026-05-04 18:06 | 26.66220 | 50.88538 | 21771 ft | 468 kts | 146° |
| 2026-05-04 18:07 | 26.63605 | 50.90724 | 21322 ft | 470 kts | 146° |
| 2026-05-04 18:07 | 26.60975 | 50.92920 | 20931 ft | 468 kts | 146° |
| 2026-05-04 18:07 | 26.58388 | 50.95081 | 20791 ft | 467 kts | 146° |
| 2026-05-04 18:07 | 26.49576 | 51.02429 | 20781 ft | 466 kts | 146° |
| 2026-05-04 18:08 | 26.39162 | 51.11093 | 20780 ft | 466 kts | 146° |
| 2026-05-04 18:08 | 26.29104 | 51.20079 | 20782 ft | 467 kts | 142° |
| 2026-05-04 18:08 | 26.19140 | 51.29365 | 20782 ft | 466 kts | 142° |
| 2026-05-04 18:08 | 26.09106 | 51.38392 | 20776 ft | 463 kts | 150° |
| 2026-05-04 18:09 | 25.84120 | 51.40004 | 20784 ft | 452 kts | 183° |
| 2026-05-04 18:09 | 25.61748 | 51.38792 | 20785 ft | 445 kts | 205° |
| 2026-05-04 18:10 | 25.59147 | 51.37019 | 20786 ft | 441 kts | 221° |
| 2026-05-04 18:10 | 25.57071 | 51.34548 | 20567 ft | 435 kts | 234° |
| 2026-05-04 18:10 | 25.55274 | 51.31865 | 19955 ft | 428 kts | 233° |
| 2026-05-04 18:10 | 25.53319 | 51.29445 | 18773 ft | 417 kts | 224° |
| 2026-05-04 18:11 | 25.51277 | 51.27720 | 17517 ft | 416 kts | 211° |
| 2026-05-04 18:11 | 25.48650 | 51.26469 | 16655 ft | 400 kts | 197° |
| 2026-05-04 18:11 | 25.45966 | 51.25984 | 16005 ft | 383 kts | 183° |
| 2026-05-04 18:11 | 25.43396 | 51.26308 | 15411 ft | 368 kts | 166° |
| 2026-05-04 18:12 | 25.41100 | 51.27431 | 14873 ft | 355 kts | 148° |
| 2026-05-04 18:12 | 25.39823 | 51.28557 | 14473 ft | 348 kts | 137° |
| 2026-05-04 18:12 | 25.37588 | 51.31036 | 13576 ft | 339 kts | 135° |
| 2026-05-04 18:12 | 25.36480 | 51.32283 | 13033 ft | 335 kts | 135° |
| 2026-05-04 18:13 | 25.34872 | 51.34087 | 12268 ft | 331 kts | 135° |
| 2026-05-04 18:13 | 25.32737 | 51.36481 | 11265 ft | 325 kts | 134° |
| 2026-05-04 18:13 | 25.30104 | 51.39431 | 10046 ft | 321 kts | 134° |
| 2026-05-04 18:14 | 25.28528 | 51.41197 | 9292 ft | 319 kts | 134° |
| 2026-05-04 18:14 | 25.26967 | 51.42947 | 8839 ft | 320 kts | 134° |
| 2026-05-04 18:14 | 25.25432 | 51.44667 | 8499 ft | 316 kts | 133° |
| 2026-05-04 18:15 | 25.22299 | 51.48061 | 7720 ft | 313 kts | 141° |
| 2026-05-04 18:15 | 25.18392 | 51.50043 | 6984 ft | 310 kts | 159° |
| 2026-05-04 18:15 | 25.16382 | 51.50908 | 6615 ft | 309 kts | 159° |
| 2026-05-04 18:16 | 25.14413 | 51.51760 | 6364 ft | 302 kts | 159° |
| 2026-05-04 18:16 | 25.12486 | 51.52505 | 6067 ft | 284 kts | 166° |
| 2026-05-04 18:16 | 25.10593 | 51.52925 | 5722 ft | 272 kts | 172° |
| 2026-05-04 18:17 | 25.06916 | 51.53515 | 4749 ft | 264 kts | 172° |
| 2026-05-04 18:17 | 25.05119 | 51.53840 | 4297 ft | 259 kts | 165° |
| 2026-05-04 18:17 | 25.02620 | 51.56242 | 3884 ft | 234 kts | 108° |
| 2026-05-04 18:18 | 25.02059 | 51.57916 | 3619 ft | 230 kts | 103° |
| 2026-05-04 18:18 | 25.01585 | 51.59558 | 3506 ft | 223 kts | 103° |
| 2026-05-04 18:18 | 25.01246 | 51.61216 | 3494 ft | 220 kts | 87° |
| 2026-05-04 18:18 | 25.01591 | 51.62787 | 3502 ft | 208 kts | 53° |
| 2026-05-04 18:19 | 25.03815 | 51.64576 | 3369 ft | 201 kts | 21° |
| 2026-05-04 18:19 | 25.05064 | 51.65298 | 3194 ft | 202 kts | 27° |
| 2026-05-04 18:19 | 25.06262 | 51.66063 | 3005 ft | 202 kts | 27° |
| 2026-05-04 18:20 | 25.07474 | 51.66826 | 2807 ft | 196 kts | 24° |
| 2026-05-04 18:20 | 25.08703 | 51.67326 | 2720 ft | 180 kts | 9° |
| 2026-05-04 18:20 | 25.09911 | 51.67354 | 2599 ft | 174 kts | 352° |
| 2026-05-04 18:20 | 25.11062 | 51.66955 | 2484 ft | 174 kts | 339° |
| 2026-05-04 18:21 | 25.12182 | 51.66427 | 2457 ft | 175 kts | 339° |
| 2026-05-04 18:21 | 25.13322 | 51.65935 | 2422 ft | 175 kts | 340° |
| 2026-05-04 18:21 | 25.14412 | 51.65473 | 2358 ft | 163 kts | 340° |
| 2026-05-04 18:21 | 25.15444 | 51.65019 | 2186 ft | 156 kts | 339° |
| 2026-05-04 18:22 | 25.16406 | 51.64572 | 1986 ft | 148 kts | 338° |
| 2026-05-04 18:22 | 25.17336 | 51.64132 | 1753 ft | 142 kts | 340° |
| 2026-05-04 18:22 | 25.18239 | 51.63740 | 1522 ft | 135 kts | 340° |
| 2026-05-04 18:22 | 25.19096 | 51.63391 | 1309 ft | 132 kts | 340° |
| 2026-05-04 18:23 | 25.19964 | 51.63019 | 1148 ft | 135 kts | 338° |
| 2026-05-04 18:23 | 25.20849 | 51.62625 | 1015 ft | 137 kts | 338° |
| 2026-05-04 18:23 | 25.21730 | 51.62230 | 865 ft | 140 kts | 338° |
| 2026-05-04 18:23 | 25.22649 | 51.61829 | 706 ft | 144 kts | 337° |
| 2026-05-04 18:24 | 25.23590 | 51.61411 | 471 ft | 144 kts | 335° |
| 2026-05-04 18:24 | 25.24492 | 51.61002 | 288 ft | 141 kts | 336° |
| 2026-05-04 18:24 | 25.25401 | 51.60608 | 110 ft | 140 kts | 336° |
| 2026-05-04 18:24 | 25.26296 | 51.60213 | 25 ft | 127 kts | 338° |
| 2026-05-04 18:25 | 25.26992 | 51.59908 | 21 ft | 91 kts | 339° |
| 2026-05-04 18:25 | 25.27462 | 51.59702 | 22 ft | 54 kts | 338° |
| 2026-05-04 18:25 | 25.27789 | 51.59558 | 20 ft | 48 kts | 341° |
| 2026-05-04 18:25 | 25.28050 | 51.59530 | 24 ft | 14 kts | 8° |
| 2026-05-04 18:26 | 25.28118 | 51.59578 | 30 ft | 10 kts | 73° |
| 2026-05-04 18:26 | 25.28081 | 51.59631 | 32 ft | 10 kts | 156° |
| 2026-05-04 18:26 | 25.28009 | 51.59663 | 32 ft | 12 kts | 158° |
| 2026-05-04 18:26 | 25.27925 | 51.59700 | 26 ft | 14 kts | 158° |
| 2026-05-04 18:27 | 25.27828 | 51.59744 | 26 ft | 17 kts | 158° |
| 2026-05-04 18:27 | 25.27696 | 51.59804 | 29 ft | 24 kts | 158° |
| 2026-05-04 18:27 | 25.27531 | 51.59878 | 26 ft | 27 kts | 158° |
| 2026-05-04 18:27 | 25.27356 | 51.59958 | 26 ft | 28 kts | 157° |
| 2026-05-04 18:28 | 25.27177 | 51.60041 | 26 ft | 28 kts | 158° |
| 2026-05-04 18:28 | 25.26990 | 51.60121 | 29 ft | 29 kts | 160° |
| 2026-05-04 18:28 | 25.26797 | 51.60202 | 28 ft | 30 kts | 159° |
| 2026-05-04 18:28 | 25.26598 | 51.60287 | 31 ft | 31 kts | 159° |
| 2026-05-04 18:29 | 25.26396 | 51.60376 | 27 ft | 31 kts | 158° |
| 2026-05-04 18:29 | 25.26193 | 51.60465 | 27 ft | 31 kts | 158° |
| 2026-05-04 18:29 | 25.26061 | 51.60548 | 27 ft | 15 kts | 111° |
| 2026-05-04 18:29 | 25.26077 | 51.60657 | 28 ft | 15 kts | 69° |
| 2026-05-04 18:30 | 25.26173 | 51.60917 | 28 ft | 21 kts | 68° |
| 2026-05-04 18:30 | 25.26227 | 51.61057 | 28 ft | 13 kts | 52° |
| 2026-05-04 18:30 | 25.26288 | 51.61074 | 28 ft | 9 kts | 347° |
| 2026-05-04 18:31 | 25.26358 | 51.61046 | 28 ft | 12 kts | 337° |
| 2026-05-04 18:31 | 25.26422 | 51.61028 | 28 ft | 6 kts | 21° |
| 2026-05-04 18:31 | 25.26442 | 51.61062 | 28 ft | 6 kts | 68° |
| 2026-05-04 18:31 | 25.26456 | 51.61102 | 28 ft | 0 kts | 69° |
| 2026-05-04 18:32 | 25.26459 | 51.61111 | 28 ft | 0 kts | 68° |